Time;durP1;ratioP1;P1;durP2;ratioP2;P2;SDS_P1;SDS_P2;PMS_P1;PMS_P2;Temp;Humidity;BMP_temperature;BMP_pressure;BME280_temperature;BME280_humidity;BME280_pressure;Samples;Min_cycle;Max_cycle;Signal;HPM_P1;HPM_P2
2023/08/23 00:00:26;;;;;;;11.05;3.80;;;;;;;20.69;91.74;101916.16;4809179;29;20492;-64
2023/08/23 00:02:54;;;;;;;7.63;3.45;;;;;;;20.68;91.92;101915.31;4792182;29;20058;-65
2023/08/23 00:05:22;;;;;;;6.68;3.30;;;;;;;20.64;92.23;101914.31;4799423;29;20059;-64
2023/08/23 00:07:50;;;;;;;9.45;3.38;;;;;;;20.63;92.18;101912.66;4807362;29;20420;-64
2023/08/23 00:10:17;;;;;;;7.38;3.63;;;;;;;20.61;92.44;101909.38;4809242;29;20058;-65
2023/08/23 00:12:45;;;;;;;6.85;3.45;;;;;;;20.62;92.44;101916.56;4809196;29;20111;-65
2023/08/23 00:15:13;;;;;;;6.07;3.65;;;;;;;20.61;92.35;101917.69;4809054;29;20047;-62
2023/08/23 00:17:40;;;;;;;5.63;3.45;;;;;;;;;;4804670;29;20098;-60
2023/08/23 00:20:09;;;;;;;6.70;3.70;;;;;;;20.54;92.66;101900.63;4829127;29;20061;-59
2023/08/23 00:22:36;;;;;;;9.27;4.20;;;;;;;20.52;92.94;101905.69;4786904;29;20050;-63
2023/08/23 00:25:04;;;;;;;7.57;3.88;;;;;;;20.49;93.33;101909.06;4809745;29;20059;-64
2023/08/23 00:27:32;;;;;;;6.30;3.47;;;;;;;20.48;93.42;101896.34;4798932;29;20055;-64
2023/08/23 00:30:00;;;;;;;10.27;4.20;;;;;;;20.49;93.68;101895.22;4813142;29;20055;-63
2023/08/23 00:32:28;;;;;;;6.20;3.78;;;;;;;20.49;93.80;101900.75;4822919;29;20074;-61
2023/08/23 00:34:56;;;;;;;8.40;3.90;;;;;;;20.49;93.70;101896.03;4825280;29;20050;-62
2023/08/23 00:37:24;;;;;;;7.88;3.63;;;;;;;20.49;93.54;101901.56;4809583;29;20421;-64
2023/08/23 00:39:51;;;;;;;5.63;3.63;;;;;;;20.47;93.71;101898.31;4799070;29;20054;-65
2023/08/23 00:42:19;;;;;;;5.25;2.90;;;;;;;20.47;93.49;101886.41;4827051;29;20074;-65
2023/08/23 00:44:47;;;;;;;7.18;3.42;;;;;;;20.42;93.56;101885.41;4817370;29;20046;-65
2023/08/23 00:47:14;;;;;;;7.93;3.65;;;;;;;20.34;94.01;101883.31;4803761;29;20062;-65
2023/08/23 00:49:42;;;;;;;7.85;3.50;;;;;;;20.29;94.59;101880.66;4807151;29;20073;-65
2023/08/23 00:52:10;;;;;;;9.07;4.43;;;;;;;20.24;94.65;101875.25;4806828;29;20062;-68
2023/08/23 00:54:38;;;;;;;11.63;4.20;;;;;;;20.14;95.08;101881.81;4788786;29;20051;-67
2023/08/23 00:57:07;;;;;;;7.22;4.18;;;;;;;20.06;95.65;101888.06;4777591;29;20523;-65
2023/08/23 00:59:35;;;;;;;5.90;3.58;;;;;;;19.97;96.13;101878.81;4791913;29;20069;-64
2023/08/23 01:02:03;;;;;;;6.82;3.55;;;;;;;19.91;96.57;101875.31;4777149;29;20051;-65
2023/08/23 01:04:31;;;;;;;6.32;3.67;;;;;;;19.90;97.04;101873.69;4790421;29;20051;-65
2023/08/23 01:07:09;;;;;;;8.70;4.43;;;;;;;19.91;97.00;101874.50;4804199;29;20057;-65
2023/08/23 01:10:01;;;;;;;8.45;4.22;;;;;;;19.89;97.44;101876.75;4776374;29;20119;-65
2023/08/23 01:12:42;;;;;;;7.35;4.00;;;;;;;19.91;97.64;101882.81;4807750;29;20055;-65
2023/08/23 01:15:14;;;;;;;8.93;4.43;;;;;;;19.98;97.38;101886.00;4806521;29;20057;-65
2023/08/23 01:17:43;;;;;;;7.25;4.05;;;;;;;20.03;96.38;101887.84;4776017;29;20062;-66
2023/08/23 01:20:12;;;;;;;7.47;4.07;;;;;;;20.01;95.95;101896.44;4790134;29;20081;-65
2023/08/23 01:23:07;;;;;;;7.03;4.22;;;;;;;19.97;95.73;101889.91;4776578;29;20054;-65
2023/08/23 01:25:34;;;;;;;7.97;4.10;;;;;;;19.95;96.12;101892.13;4787884;30;20397;-64
2023/08/23 01:28:02;;;;;;;6.80;4.03;;;;;;;19.96;96.21;101891.00;4773742;29;20462;-67
2023/08/23 01:30:31;;;;;;;9.23;4.20;;;;;;;19.96;95.87;101891.00;4804953;29;20061;-66
2023/08/23 01:33:19;;;;;;;6.60;4.00;;;;;;;19.94;95.81;101894.09;4791142;29;20496;-66
2023/08/23 01:36:04;;;;;;;6.72;4.22;;;;;;;19.96;95.94;101886.31;4776276;29;20393;-65
2023/08/23 01:38:33;;;;;;;6.82;3.60;;;;;;;19.94;95.97;101879.41;4785573;29;20114;-66
2023/08/23 01:41:01;;;;;;;7.97;4.28;;;;;;;19.89;95.60;101885.91;4806771;29;20050;-65
2023/08/23 01:43:28;;;;;;;6.82;3.75;;;;;;;19.83;96.06;101884.34;4802603;29;20066;-65
2023/08/23 01:45:56;;;;;;;5.88;3.63;;;;;;;19.77;96.42;101883.63;4816141;29;20057;-66
2023/08/23 01:48:24;;;;;;;5.30;3.00;;;;;;;19.72;96.92;101893.94;4824219;29;20042;-66
2023/08/23 01:50:52;;;;;;;5.90;3.88;;;;;;;19.69;97.00;101891.78;4794717;29;20063;-65
2023/08/23 01:53:20;;;;;;;6.28;3.70;;;;;;;19.65;97.04;101879.66;4805710;29;20077;-66
2023/08/23 01:55:48;;;;;;;5.60;3.75;;;;;;;19.58;97.92;101883.66;4806844;29;20054;-64
2023/08/23 01:58:17;;;;;;;8.45;4.28;;;;;;;19.61;98.17;101884.16;4776128;29;20099;-66
2023/08/23 02:00:48;;;;;;;6.68;3.97;;;;;;;19.56;98.05;101880.34;4794066;29;20043;-64
2023/08/23 02:03:16;;;;;;;7.35;3.80;;;;;;;19.55;98.09;101878.72;4806664;29;20055;-64
2023/08/23 02:05:44;;;;;;;8.23;4.13;;;;;;;19.51;98.09;101888.75;4791525;29;20548;-64
2023/08/23 02:08:13;;;;;;;7.10;3.70;;;;;;;19.45;98.45;101880.81;4790505;29;20488;-65
2023/08/23 02:10:42;;;;;;;5.53;3.72;;;;;;;19.41;98.81;101886.16;4790775;29;20054;-64
2023/08/23 02:13:10;;;;;;;7.93;4.20;;;;;;;19.37;99.13;101874.88;4805724;29;20122;-64
2023/08/23 02:15:38;;;;;;;8.23;4.10;;;;;;;19.35;98.68;101874.34;4790239;29;20066;-65
2023/08/23 02:18:06;;;;;;;5.43;3.63;;;;;;;19.23;99.14;101876.75;4804955;29;20103;-64
2023/08/23 02:20:34;;;;;;;9.73;3.67;;;;;;;19.22;99.94;101872.38;4805463;29;20428;-66
2023/08/23 02:23:03;;;;;;;7.03;3.40;;;;;;;19.23;99.67;101879.53;4790521;29;20054;-64
2023/08/23 02:25:31;;;;;;;8.50;4.30;;;;;;;19.21;99.40;101867.13;4790343;29;20067;-64
2023/08/23 02:27:58;;;;;;;5.78;3.13;;;;;;;19.17;99.85;101877.97;4805063;29;20401;-64
2023/08/23 02:30:26;;;;;;;7.60;3.58;;;;;;;19.19;99.90;101880.41;4805451;29;20058;-66
2023/08/23 02:32:54;;;;;;;6.13;3.35;;;;;;;19.19;99.76;101872.94;4798486;29;20047;-65
2023/08/23 02:35:22;;;;;;;7.47;3.47;;;;;;;19.21;99.60;101869.91;4790133;29;20511;-65
2023/08/23 02:37:50;;;;;;;8.18;3.90;;;;;;;19.21;99.48;101861.59;4806135;29;20058;-65
2023/08/23 02:40:18;;;;;;;8.30;3.80;;;;;;;19.23;99.60;101873.19;4806137;29;20054;-65
2023/08/23 02:42:46;;;;;;;6.20;3.55;;;;;;;19.21;99.09;101861.59;4801851;29;20071;-65
2023/08/23 02:45:14;;;;;;;6.18;3.47;;;;;;;19.18;99.09;101862.22;4790503;29;20529;-65
2023/08/23 02:47:41;;;;;;;6.32;3.53;;;;;;;19.14;99.23;101865.56;4790309;29;20059;-64
2023/08/23 02:50:09;;;;;;;6.85;3.60;;;;;;;19.10;99.72;101861.78;4793878;29;20403;-65
2023/08/23 02:52:37;;;;;;;9.63;3.83;;;;;;;19.12;100.00;101873.34;4806796;29;20123;-64
2023/08/23 02:55:05;;;;;;;8.88;3.80;;;;;;;19.16;100.00;101863.31;4793723;29;20061;-64
2023/08/23 02:57:33;;;;;;;6.03;3.38;;;;;;;19.24;99.36;101861.00;4808599;29;20070;-65
2023/08/23 03:00:01;;;;;;;8.85;3.78;;;;;;;19.25;98.81;101851.59;4789763;29;20061;-65
2023/08/23 03:02:28;;;;;;;6.10;3.17;;;;;;;19.23;98.62;101851.88;4805670;29;20053;-66
2023/08/23 03:04:56;;;;;;;9.98;4.32;;;;;;;19.15;98.45;101858.94;4806136;29;20059;-66
2023/08/23 03:07:24;;;;;;;8.13;4.45;;;;;;;19.04;99.11;101851.91;4805981;29;20526;-65
2023/08/23 03:09:53;;;;;;;7.97;4.15;;;;;;;18.98;99.68;101844.00;4775739;29;20420;-65
2023/08/23 03:12:21;;;;;;;9.93;4.30;;;;;;;18.97;100.00;101861.69;4805865;29;20074;-66
2023/08/23 03:14:52;;;;;;;7.50;3.80;;;;;;;18.94;100.00;101858.41;4806954;29;20055;-66
2023/08/23 03:17:19;;;;;;;9.02;3.70;;;;;;;18.94;100.00;101852.91;4794415;29;20065;-65
2023/08/23 03:19:51;;;;;;;7.22;3.72;;;;;;;18.98;100.00;101852.28;4820772;29;20046;-64
2023/08/23 03:22:20;;;;;;;9.52;4.40;;;;;;;18.97;99.72;101851.47;4781050;29;20411;-65
2023/08/23 03:24:47;;;;;;;8.50;3.90;;;;;;;18.94;99.81;101849.31;4774811;29;20151;-64
2023/08/23 03:27:15;;;;;;;8.77;3.80;;;;;;;18.92;99.87;101844.09;4805051;29;20047;-65
2023/08/23 03:29:46;;;;;;;9.88;3.92;;;;;;;18.88;99.91;101850.50;4826154;29;20043;-64
2023/08/23 03:32:16;;;;;;;6.20;3.25;;;;;;;18.86;100.00;101848.06;4821119;29;20058;-65
2023/08/23 03:34:44;;;;;;;6.93;3.25;;;;;;;18.88;100.00;101847.75;4778596;29;20484;-64
2023/08/23 03:37:13;;;;;;;8.70;3.67;;;;;;;18.91;100.00;101855.44;4792650;29;20119;-67
2023/08/23 03:39:41;;;;;;;8.48;3.58;;;;;;;18.93;100.00;101851.25;4793197;29;20053;-64
2023/08/23 03:42:08;;;;;;;8.80;3.88;;;;;;;18.91;99.95;101852.69;4792573;29;20489;-65
2023/08/23 03:44:37;;;;;;;7.93;3.97;;;;;;;18.86;100.00;101852.75;4809336;29;20099;-65
2023/08/23 03:47:05;;;;;;;7.60;4.32;;;;;;;18.84;100.00;101853.06;4792957;29;20054;-65
2023/08/23 03:49:35;;;;;;;10.00;4.25;;;;;;;18.89;100.00;101852.16;4792339;29;20054;-66
2023/08/23 03:52:03;;;;;;;11.20;4.70;;;;;;;18.88;100.00;101848.59;4792462;29;20050;-65
2023/08/23 03:54:33;;;;;;;11.43;3.75;;;;;;;18.80;100.00;101854.75;4808148;29;20105;-64
2023/08/23 03:57:00;;;;;;;7.07;3.42;;;;;;;18.79;100.00;101849.56;4807975;29;20066;-66
2023/08/23 03:59:28;;;;;;;6.82;3.60;;;;;;;18.76;100.00;101855.63;4807811;29;20051;-65
2023/08/23 04:01:56;;;;;;;6.60;3.72;;;;;;;18.72;100.00;101856.22;4810963;29;20065;-67
2023/08/23 04:04:24;;;;;;;5.65;3.25;;;;;;;18.72;100.00;101850.72;4805787;29;20071;-66
2023/08/23 04:06:52;;;;;;;5.72;3.40;;;;;;;18.69;100.00;101859.59;4776470;29;20057;-66
2023/08/23 04:09:20;;;;;;;5.35;3.40;;;;;;;18.69;100.00;101859.59;4806212;29;20054;-66
2023/08/23 04:11:47;;;;;;;7.15;3.70;;;;;;;18.71;100.00;101853.75;4800033;29;20054;-65
2023/08/23 04:14:16;;;;;;;7.80;3.67;;;;;;;18.68;100.00;101866.22;4790768;29;20598;-66
2023/08/23 04:16:44;;;;;;;9.63;4.28;;;;;;;18.67;100.00;101856.31;4790688;29;20067;-67
2023/08/23 04:19:11;;;;;;;6.90;3.65;;;;;;;18.64;100.00;101859.66;4791013;29;20170;-66
2023/08/23 04:21:39;;;;;;;7.05;3.67;;;;;;;18.63;100.00;101863.53;4777178;29;20051;-66
2023/08/23 04:24:07;;;;;;;6.72;3.80;;;;;;;18.65;100.00;101863.25;4804323;29;20063;-65
2023/08/23 04:26:38;;;;;;;8.85;4.43;;;;;;;18.64;100.00;101865.19;4791865;30;20463;-65
2023/08/23 04:29:05;;;;;;;5.93;3.90;;;;;;;18.61;100.00;101860.25;4775362;30;20058;-65
2023/08/23 04:31:33;;;;;;;6.80;3.70;;;;;;;18.62;100.00;101861.09;4779894;29;20492;-65
2023/08/23 04:34:10;;;;;;;5.57;3.40;;;;;;;18.68;100.00;101860.69;4808354;29;20423;-66
2023/08/23 04:36:39;;;;;;;9.15;4.10;;;;;;;18.68;100.00;101871.72;4792035;29;20076;-66
2023/08/23 04:39:06;;;;;;;7.43;4.05;;;;;;;18.61;100.00;101871.28;4791979;29;20059;-66
2023/08/23 04:41:34;;;;;;;8.75;3.75;;;;;;;18.58;100.00;101858.09;4785284;29;20530;-65
2023/08/23 04:44:02;;;;;;;7.75;4.20;;;;;;;18.60;100.00;101869.66;4776975;29;20069;-63
2023/08/23 04:46:30;;;;;;;8.43;3.80;;;;;;;18.56;100.00;101865.84;4806658;29;20104;-65
2023/08/23 04:48:58;;;;;;;6.38;3.53;;;;;;;18.48;100.00;101872.03;4808928;29;20047;-65
2023/08/23 04:51:27;;;;;;;5.15;3.60;;;;;;;18.47;100.00;101856.56;4807344;29;20107;-63
2023/08/23 04:53:55;;;;;;;8.48;4.07;;;;;;;18.54;100.00;101865.31;4806100;29;20106;-63
2023/08/23 04:56:23;;;;;;;12.25;4.72;;;;;;;18.50;100.00;101859.56;4820743;29;20057;-62
2023/08/23 04:58:51;;;;;;;9.32;4.50;;;;;;;18.43;100.00;101859.13;4803026;29;20125;-63
2023/08/23 05:01:19;;;;;;;7.75;4.20;;;;;;;18.40;100.00;101859.72;4799566;29;20058;-62
2023/08/23 05:03:47;;;;;;;8.50;4.35;;;;;;;18.37;100.00;101852.00;4790522;29;20110;-64
2023/08/23 05:06:15;;;;;;;6.90;4.47;;;;;;;18.34;100.00;101854.53;4814948;29;20117;-62
2023/08/23 05:08:42;;;;;;;6.53;4.00;;;;;;;18.31;100.00;101856.78;4797999;29;20196;-64
2023/08/23 05:11:15;;;;;;;8.93;4.03;;;;;;;18.33;100.00;101856.50;4794905;29;20058;-65
2023/08/23 05:13:45;;;;;;;10.55;4.25;;;;;;;18.37;100.00;101849.25;4797225;29;20526;-65
2023/08/23 05:16:14;;;;;;;7.75;3.53;;;;;;;18.43;100.00;101850.84;4778534;29;20511;-66
2023/08/23 05:18:42;;;;;;;9.85;4.30;;;;;;;18.49;100.00;101851.56;4807828;29;20054;-66
2023/08/23 05:21:10;;;;;;;6.25;3.90;;;;;;;18.51;100.00;101854.88;4791023;29;20107;-65
2023/08/23 05:23:38;;;;;;;8.88;3.92;;;;;;;18.53;100.00;101858.16;4790770;29;20058;-64
2023/08/23 05:26:06;;;;;;;8.52;4.30;;;;;;;18.56;100.00;101854.78;4776346;29;20058;-65
2023/08/23 05:28:35;;;;;;;7.72;5.00;;;;;;;18.62;100.00;101848.09;4804410;29;20058;-66
2023/08/23 05:31:03;;;;;;;9.50;5.10;;;;;;;18.66;100.00;101846.34;4807416;29;20055;-65
2023/08/23 05:33:32;;;;;;;8.65;4.45;;;;;;;18.73;100.00;101857.84;4790763;29;20058;-66
2023/08/23 05:36:00;;;;;;;8.18;5.13;;;;;;;18.80;100.00;101845.66;4790752;29;20454;-67
2023/08/23 05:38:29;;;;;;;10.63;6.75;;;;;;;18.86;100.00;101855.53;4822733;29;20046;-66
2023/08/23 05:40:59;;;;;;;12.05;6.50;;;;;;;18.90;100.00;101848.25;4794680;29;20050;-66
2023/08/23 05:43:27;;;;;;;9.85;6.28;;;;;;;18.95;100.00;101853.72;4807445;29;20059;-66
2023/08/23 05:45:56;;;;;;;12.07;5.68;;;;;;;18.94;100.00;101847.38;4792165;29;20058;-67
2023/08/23 05:48:24;;;;;;;12.75;6.15;;;;;;;18.96;100.00;101854.56;4793331;29;20075;-67
2023/08/23 05:50:52;;;;;;;10.52;6.82;;;;;;;18.98;100.00;101852.28;4799855;29;20050;-65
2023/08/23 05:53:19;;;;;;;13.32;6.63;;;;;;;18.98;100.00;101853.13;4804780;29;20069;-66
2023/08/23 05:55:49;;;;;;;10.13;6.05;;;;;;;19.00;100.00;101856.41;4810004;29;20059;-66
2023/08/23 05:58:18;;;;;;;10.00;6.00;;;;;;;19.01;100.00;101862.75;4790084;29;20051;-66
2023/08/23 06:00:47;;;;;;;8.60;5.93;;;;;;;19.00;100.00;101873.00;4791653;29;20054;-65
2023/08/23 06:03:15;;;;;;;8.88;5.80;;;;;;;19.00;100.00;101861.94;4808218;29;20050;-66
2023/08/23 06:05:46;;;;;;;11.23;6.33;;;;;;;19.02;100.00;101862.44;4230746;29;10001825;-67
2023/08/23 06:08:14;;;;;;;11.23;7.07;;;;;;;19.06;100.00;101873.72;4800275;29;20053;-66
2023/08/23 06:10:41;;;;;;;10.98;7.07;;;;;;;19.05;100.00;101867.38;4807540;29;20055;-65
2023/08/23 06:13:09;;;;;;;14.05;7.45;;;;;;;19.06;100.00;101871.78;4795332;29;20146;-66
2023/08/23 06:15:37;;;;;;;10.25;6.60;;;;;;;19.07;100.00;101878.13;4787305;29;20057;-66
2023/08/23 06:18:05;;;;;;;12.82;6.80;;;;;;;19.08;100.00;101871.50;4804253;29;20066;-66
2023/08/23 06:20:33;;;;;;;11.35;7.13;;;;;;;19.09;100.00;101870.34;4821509;29;20050;-66
2023/08/23 06:23:01;;;;;;;13.73;7.57;;;;;;;19.08;100.00;101869.53;4822354;29;20062;-68
2023/08/23 06:25:28;;;;;;;11.25;7.80;;;;;;;19.08;100.00;101866.78;4803143;29;20073;-67
2023/08/23 06:27:56;;;;;;;13.63;7.85;;;;;;;19.08;100.00;101875.06;4802227;29;20055;-68
2023/08/23 06:30:24;;;;;;;13.23;8.25;;;;;;;19.08;100.00;101875.06;4807641;29;20047;-67
2023/08/23 06:32:52;;;;;;;12.85;8.13;;;;;;;19.09;100.00;101871.16;4803306;29;20117;-66
2023/08/23 06:35:21;;;;;;;13.20;8.27;;;;;;;19.09;100.00;101871.16;4805030;29;20063;-66
2023/08/23 06:37:49;;;;;;;10.90;7.28;;;;;;;19.12;100.00;101881.63;4796427;29;20065;-66
2023/08/23 06:40:17;;;;;;;13.13;7.40;;;;;;;19.16;100.00;101887.38;4798679;29;20050;-66
2023/08/23 06:42:45;;;;;;;11.25;7.70;;;;;;;19.18;100.00;101878.78;4800322;29;20070;-67
2023/08/23 06:45:14;;;;;;;14.10;7.80;;;;;;;19.20;100.00;101888.41;4794152;29;20531;-65
2023/08/23 06:47:41;;;;;;;14.57;7.25;;;;;;;19.21;100.00;101884.53;4801534;29;20111;-64
2023/08/23 06:50:09;;;;;;;11.82;7.25;;;;;;;19.23;100.00;101882.28;4803113;29;20053;-65
2023/08/23 06:52:42;;;;;;;12.88;7.13;;;;;;;19.26;100.00;101880.88;4801881;29;20054;-66
2023/08/23 06:55:10;;;;;;;12.40;6.80;;;;;;;19.28;100.00;101881.38;4790866;29;20059;-67
2023/08/23 06:57:39;;;;;;;12.48;7.53;;;;;;;19.31;100.00;101886.31;4808122;29;20066;-67
2023/08/23 07:00:08;;;;;;;13.10;6.95;;;;;;;19.31;100.00;101883.53;4787052;29;20047;-66
2023/08/23 07:02:36;;;;;;;9.65;6.43;;;;;;;19.32;100.00;101891.53;4802064;29;20053;-65
2023/08/23 07:05:04;;;;;;;10.32;6.57;;;;;;;19.33;100.00;101897.88;4809321;29;20458;-63
2023/08/23 07:07:32;;;;;;;11.98;6.68;;;;;;;19.33;100.00;101897.88;4804516;29;20427;-65
2023/08/23 07:10:00;;;;;;;10.68;5.82;;;;;;;19.33;100.00;101897.88;4805447;29;20081;-63
2023/08/23 07:12:44;;;;;;;12.18;6.35;;;;;;;19.37;100.00;101898.94;4804057;29;20139;-64
2023/08/23 07:15:12;;;;;;;12.00;6.60;;;;;;;19.39;100.00;101907.75;4790884;29;20063;-67
2023/08/23 07:17:40;;;;;;;9.88;5.70;;;;;;;19.41;100.00;101897.22;4806381;29;20055;-63
2023/08/23 07:20:09;;;;;;;10.20;5.63;;;;;;;19.45;100.00;101895.47;4805682;29;20515;-64
2023/08/23 07:22:37;;;;;;;10.60;5.65;;;;;;;19.46;100.00;101897.13;4797529;29;20066;-64
2023/08/23 07:25:05;;;;;;;13.32;6.88;;;;;;;19.45;100.00;101906.53;4804107;29;20073;-65
2023/08/23 07:27:33;;;;;;;11.82;7.38;;;;;;;19.44;100.00;101909.59;4805201;29;20085;-64
2023/08/23 07:30:01;;;;;;;12.05;6.85;;;;;;;19.45;100.00;101909.28;4801365;29;20615;-64
2023/08/23 07:32:30;;;;;;;13.50;6.85;;;;;;;19.44;100.00;101913.19;4805719;29;20055;-64
2023/08/23 07:35:00;;;;;;;10.48;5.97;;;;;;;19.46;100.00;101905.41;4784451;29;20086;-64
2023/08/23 07:37:28;;;;;;;10.95;6.03;;;;;;;19.48;100.00;101911.47;4806200;29;20050;-64
2023/08/23 07:39:55;;;;;;;10.32;5.40;;;;;;;19.52;100.00;101918.00;4794298;29;20528;-64
2023/08/23 07:42:24;;;;;;;10.38;4.68;;;;;;;19.60;100.00;101930.31;4774047;30;20065;-64
2023/08/23 07:44:52;;;;;;;10.30;5.78;;;;;;;19.63;100.00;101928.94;4801776;29;20103;-64
2023/08/23 07:47:19;;;;;;;10.38;5.25;;;;;;;19.66;100.00;101929.13;4807616;29;20415;-64
2023/08/23 07:49:48;;;;;;;9.13;3.67;;;;;;;19.77;100.00;101927.88;4806187;29;20061;-64
2023/08/23 07:52:16;;;;;;;8.35;4.22;;;;;;;19.81;100.00;101928.06;4791273;29;20059;-64
2023/08/23 07:54:44;;;;;;;11.82;5.40;;;;;;;19.84;100.00;101924.69;4796814;29;20058;-65
2023/08/23 07:57:12;;;;;;;14.00;5.43;;;;;;;19.82;99.54;101915.06;4807429;29;20424;-64
2023/08/23 07:59:40;;;;;;;13.77;5.65;;;;;;;19.85;99.40;101920.81;4807349;29;20153;-64
2023/08/23 08:02:07;;;;;;;8.38;4.88;;;;;;;19.86;98.81;101925.19;4807688;29;20500;-64
2023/08/23 08:04:35;;;;;;;10.02;5.53;;;;;;;19.85;98.40;101920.81;4808093;29;20522;-64
2023/08/23 08:07:03;;;;;;;48.58;8.02;;;;;;;19.86;98.56;101927.16;4802859;29;20055;-64
2023/08/23 08:09:31;;;;;;;111.85;19.95;;;;;;;19.93;99.52;101916.50;4806931;29;20054;-65
2023/08/23 08:11:59;;;;;;;50.10;11.32;;;;;;;19.96;99.16;101921.44;4809211;29;20073;-65
2023/08/23 08:14:27;;;;;;;57.38;11.05;;;;;;;20.02;98.38;101924.94;4802906;29;20058;-64
2023/08/23 08:16:55;;;;;;;13.00;6.50;;;;;;;20.05;96.91;101924.31;4807257;29;20050;-65
2023/08/23 08:19:22;;;;;;;13.07;6.63;;;;;;;20.06;96.44;101921.25;4821724;29;20480;-63
2023/08/23 08:21:50;;;;;;;12.98;5.93;;;;;;;20.07;95.91;101920.13;4807692;29;20047;-64
2023/08/23 08:24:18;;;;;;;13.68;5.72;;;;;;;20.07;95.73;101922.88;4808404;29;20053;-63
2023/08/23 08:26:46;;;;;;;13.63;6.50;;;;;;;20.08;95.11;101918.97;4801296;29;20063;-62
2023/08/23 08:29:13;;;;;;;12.23;6.47;;;;;;;20.09;95.12;101925.38;4790462;29;20047;-63
2023/08/23 08:31:42;;;;;;;14.13;6.68;;;;;;;20.12;95.22;101924.75;4806615;29;20065;-63
2023/08/23 08:34:09;;;;;;;18.05;6.80;;;;;;;20.16;95.33;101931.31;4797980;29;20062;-63
2023/08/23 08:36:38;;;;;;;22.92;5.97;;;;;;;20.18;94.74;101934.59;4807122;29;20054;-66
2023/08/23 08:39:05;;;;;;;12.50;5.55;;;;;;;20.18;93.98;101926.31;4812750;29;20055;-65
2023/08/23 08:41:33;;;;;;;12.18;5.80;;;;;;;20.21;93.71;101929.25;4815755;29;20059;-64
2023/08/23 08:44:02;;;;;;;13.57;6.22;;;;;;;20.22;92.83;101927.31;4807143;29;20062;-63
2023/08/23 08:46:30;;;;;;;11.98;5.68;;;;;;;20.27;93.25;101929.97;4806899;29;20512;-63
2023/08/23 08:48:58;;;;;;;13.93;5.53;;;;;;;20.33;92.61;101926.00;4807010;29;20071;-62
2023/08/23 08:51:27;;;;;;;10.98;5.80;;;;;;;20.38;91.11;101930.59;4803714;29;20055;-64
2023/08/23 08:53:56;;;;;;;10.57;4.88;;;;;;;20.39;91.10;101927.50;4789571;29;20099;-63
2023/08/23 08:56:23;;;;;;;13.07;5.03;;;;;;;20.43;90.82;101922.19;4793501;29;20448;-63
2023/08/23 08:58:55;;;;;;;14.50;5.90;;;;;;;20.46;90.47;101924.34;4806029;29;20055;-67
2023/08/23 09:01:23;;;;;;;9.70;4.68;;;;;;;20.49;90.13;101917.38;4803853;29;20046;-63
2023/08/23 09:03:51;;;;;;;13.40;5.53;;;;;;;20.51;90.22;101915.09;4791910;29;20059;-63
2023/08/23 09:06:20;;;;;;;19.27;5.18;;;;;;;20.53;90.22;101912.84;4807506;29;20550;-63
2023/08/23 09:08:48;;;;;;;9.48;5.72;;;;;;;20.56;89.59;101917.78;4797874;29;20061;-62
2023/08/23 09:11:16;;;;;;;15.25;5.93;;;;;;;20.59;89.48;101911.66;4800443;29;20061;-63
2023/08/23 09:13:44;;;;;;;12.27;5.65;;;;;;;20.62;88.90;101908.28;4808153;29;20419;-63
2023/08/23 09:16:13;;;;;;;11.48;6.57;;;;;;;20.67;89.09;101910.94;4805230;29;20051;-63
2023/08/23 09:18:45;;;;;;;13.70;5.60;;;;;;;20.71;88.76;101909.19;4792813;29;20046;-63
2023/08/23 09:21:14;;;;;;;13.57;5.90;;;;;;;20.76;87.96;101911.84;4806014;29;20050;-62
2023/08/23 09:23:42;;;;;;;11.75;5.18;;;;;;;20.80;87.34;101918.38;4806654;29;20062;-64
2023/08/23 09:26:09;;;;;;;11.40;5.40;;;;;;;20.82;87.14;101916.13;4812881;29;20086;-60
2023/08/23 09:28:38;;;;;;;13.48;5.40;;;;;;;20.89;86.27;101912.13;4784886;29;20137;-60
2023/08/23 09:31:10;;;;;;;9.50;4.85;;;;;;;20.91;87.09;101907.09;4781944;29;20057;-62
2023/08/23 09:33:41;;;;;;;10.65;5.50;;;;;;;20.95;86.79;101908.09;4797896;29;20063;-63
2023/08/23 09:36:09;;;;;;;23.38;7.35;;;;;;;20.95;87.91;101910.84;4800868;29;20066;-59
2023/08/23 09:38:39;;;;;;;11.40;6.88;;;;;;;20.95;87.75;101914.47;4840628;29;20078;-64
2023/08/23 09:41:07;;;;;;;13.75;8.38;;;;;;;20.97;88.43;101922.44;4813662;29;20065;-64
2023/08/23 09:43:35;;;;;;;13.63;7.88;;;;;;;20.97;88.23;101920.53;4809917;29;20058;-63
2023/08/23 09:46:04;;;;;;;11.32;5.60;;;;;;;21.00;88.56;101932.94;4833214;29;20075;-58
2023/08/23 09:48:34;;;;;;;13.23;6.47;;;;;;;21.04;88.29;101920.06;4791013;29;20133;-63
2023/08/23 09:51:03;;;;;;;11.18;5.90;;;;;;;21.07;88.64;101905.63;4809290;29;20058;-63
2023/08/23 09:53:35;;;;;;;14.27;6.93;;;;;;;21.11;88.19;101897.47;4819027;29;20050;-63
2023/08/23 09:56:07;;;;;;;13.65;7.85;;;;;;;21.14;88.46;101897.69;4824410;29;20054;-64
2023/08/23 09:58:35;;;;;;;12.43;6.88;;;;;;;21.16;88.47;101903.69;4821692;29;20063;-63
2023/08/23 10:01:03;;;;;;;14.38;6.88;;;;;;;21.21;88.79;101903.59;4818823;29;20519;-64
2023/08/23 10:03:31;;;;;;;8.38;5.18;;;;;;;21.26;88.17;101911.81;4810198;29;20051;-64
2023/08/23 10:05:59;;;;;;;10.93;6.22;;;;;;;21.33;89.10;101903.03;4760368;29;20057;-65
2023/08/23 10:08:27;;;;;;;9.05;4.10;;;;;;;21.36;88.00;101909.88;4800632;29;20098;-63
2023/08/23 10:10:55;;;;;;;18.27;7.20;;;;;;;21.38;86.45;101910.41;4806683;29;20496;-62
2023/08/23 10:13:23;;;;;;;21.20;7.72;;;;;;;21.42;85.95;101911.44;4807553;29;20050;-67
2023/08/23 10:15:53;;;;;;;19.27;7.25;;;;;;;21.45;85.87;101911.66;4807542;29;20099;-63
2023/08/23 10:18:22;;;;;;;15.73;6.22;;;;;;;21.43;86.39;101907.53;4807181;29;20142;-63
2023/08/23 10:20:53;;;;;;;17.83;6.78;;;;;;;21.50;85.38;101919.00;4808968;29;20121;-63
2023/08/23 10:23:22;;;;;;;13.27;6.00;;;;;;;21.54;86.26;101920.00;4789020;29;20047;-63
2023/08/23 10:25:50;;;;;;;18.15;7.95;;;;;;;21.58;84.41;101909.94;4817851;29;20153;-62
2023/08/23 10:28:18;;;;;;;12.90;4.47;;;;;;;21.62;82.55;101902.63;4807061;29;20050;-64
2023/08/23 10:30:49;;;;;;;10.35;5.95;;;;;;;21.64;81.34;101911.41;4807229;29;20367;-66
2023/08/23 10:33:19;;;;;;;10.32;4.90;;;;;;;21.65;80.29;101913.06;4787391;29;20073;-63
2023/08/23 10:35:48;;;;;;;11.88;5.30;;;;;;;21.68;80.92;101909.66;4819122;29;20057;-62
2023/08/23 10:38:16;;;;;;;8.60;4.68;;;;;;;21.74;80.44;101906.75;4774505;29;20050;-64
2023/08/23 10:40:45;;;;;;;9.73;5.03;;;;;;;21.76;80.04;101915.59;4807852;29;20118;-61
2023/08/23 10:43:23;;;;;;;9.38;4.15;;;;;;;21.77;78.40;101909.72;4801864;29;20062;-64
2023/08/23 10:46:06;;;;;;;10.82;4.40;;;;;;;21.84;77.83;101907.31;4794691;29;20055;-61
2023/08/23 10:48:35;;;;;;;7.45;4.03;;;;;;;21.92;78.25;101897.41;4791590;29;20062;-61
2023/08/23 10:51:04;;;;;;;8.57;3.30;;;;;;;21.92;72.47;101898.22;4818425;29;20047;-64
2023/08/23 10:53:31;;;;;;;23.60;9.35;;;;;;;21.95;76.33;101896.75;4154673;29;10000788;-64
2023/08/23 10:56:03;;;;;;;7.55;3.53;;;;;;;21.97;72.73;101900.03;4786773;29;20423;-62
2023/08/23 10:58:33;;;;;;;7.60;3.60;;;;;;;22.03;76.06;101900.69;4802698;29;20047;-62
2023/08/23 11:01:00;;;;;;;9.00;4.03;;;;;;;22.06;76.17;101897.31;4787111;29;20063;-65
2023/08/23 11:03:29;;;;;;;5.90;3.22;;;;;;;22.09;75.53;101894.69;4801453;29;20062;-64
2023/08/23 11:05:56;;;;;;;9.35;3.88;;;;;;;22.09;75.78;101886.34;4810253;29;20107;-64
2023/08/23 11:08:24;;;;;;;19.85;9.32;;;;;;;22.09;78.00;101889.13;4776778;29;20071;-64
2023/08/23 11:10:52;;;;;;;12.27;5.22;;;;;;;22.12;78.80;101880.16;4803664;29;20061;-64
2023/08/23 11:13:20;;;;;;;9.10;4.15;;;;;;;22.18;78.89;101874.50;4802113;29;20115;-65
2023/08/23 11:15:48;;;;;;;11.85;4.53;;;;;;;22.19;78.56;101873.34;4807861;29;20255;-64
2023/08/23 11:18:17;;;;;;;9.77;4.50;;;;;;;22.23;75.72;101866.03;4822567;29;20062;-64
2023/08/23 11:20:46;;;;;;;9.75;3.97;;;;;;;22.25;75.96;101866.53;4806393;29;20050;-64
2023/08/23 11:23:14;;;;;;;7.65;4.40;;;;;;;22.26;76.02;101860.66;4805588;29;20050;-63
2023/08/23 11:25:42;;;;;;;11.95;4.95;;;;;;;22.27;77.11;101856.75;4809859;29;20052;-63